createdAt,value
2022-12-20T00:01:32.588Z,0.00
2022-12-20T00:04:01.398Z,0.10
2022-12-20T00:06:28.114Z,0.00
2022-12-20T00:09:00.197Z,0.10
2022-12-20T00:11:28.272Z,0.00
2022-12-20T00:13:55.001Z,0.00
2022-12-20T00:16:24.092Z,0.00
2022-12-20T00:18:53.320Z,0.00
2022-12-20T00:21:20.275Z,0.00
2022-12-20T00:23:46.856Z,0.10
2022-12-20T00:26:16.392Z,0.00
2022-12-20T00:28:43.619Z,0.10
2022-12-20T00:31:12.085Z,0.00
2022-12-20T00:33:39.707Z,0.10
2022-12-20T00:36:07.678Z,0.10
2022-12-20T00:38:34.838Z,0.20
2022-12-20T00:41:17.295Z,0.20
2022-12-20T00:43:44.221Z,0.20
2022-12-20T00:46:12.749Z,0.30
2022-12-20T00:48:39.850Z,0.30
2022-12-20T00:51:12.117Z,0.30
2022-12-20T00:53:39.348Z,0.20
2022-12-20T00:56:07.264Z,0.20
2022-12-20T00:58:35.628Z,0.20
2022-12-20T01:01:02.573Z,0.20
2022-12-20T01:03:29.344Z,0.20
2022-12-20T01:05:57.769Z,0.20
2022-12-20T01:08:25.636Z,0.20
2022-12-20T01:11:23.403Z,0.20
2022-12-20T01:13:55.388Z,0.20
2022-12-20T01:16:24.932Z,0.20
2022-12-20T01:18:52.087Z,0.20
2022-12-20T01:21:20.760Z,0.10
2022-12-20T01:23:48.118Z,0.20
2022-12-20T01:26:18.341Z,0.20
2022-12-20T01:28:47.327Z,0.20
2022-12-20T01:31:17.099Z,0.20
2022-12-20T01:33:44.865Z,0.20
2022-12-20T01:36:15.809Z,0.20
2022-12-20T01:38:42.969Z,0.20
2022-12-20T01:41:20.761Z,0.20
2022-12-20T01:43:52.477Z,0.20
2022-12-20T01:46:21.609Z,0.20
2022-12-20T01:48:55.935Z,0.20
2022-12-20T01:51:24.118Z,0.20
2022-12-20T01:53:56.268Z,0.10
2022-12-20T01:56:23.105Z,0.10
2022-12-20T01:58:52.805Z,0.10
2022-12-20T02:01:19.623Z,0.10
2022-12-20T02:03:47.104Z,0.10
2022-12-20T02:06:20.570Z,0.10
2022-12-20T02:08:49.546Z,0.10
2022-12-20T02:11:31.485Z,0.10
2022-12-20T02:14:15.875Z,0.10
2022-12-20T02:16:53.398Z,0.10
2022-12-20T02:19:38.641Z,0.10
2022-12-20T02:22:44.942Z,0.10
2022-12-20T02:25:41.331Z,0.10
2022-12-20T02:28:24.832Z,0.10
2022-12-20T02:30:54.372Z,0.10
2022-12-20T02:33:24.906Z,0.10
2022-12-20T02:35:51.656Z,0.20
2022-12-20T02:38:36.485Z,0.20
2022-12-20T02:41:15.454Z,0.20
2022-12-20T02:43:44.230Z,0.10
2022-12-20T02:46:12.934Z,0.20
2022-12-20T02:48:41.104Z,0.10
2022-12-20T02:51:08.906Z,0.20
2022-12-20T02:53:37.026Z,0.20
2022-12-20T02:56:14.512Z,0.20
2022-12-20T02:58:51.060Z,0.20
2022-12-20T03:01:42.216Z,0.20
2022-12-20T03:04:09.177Z,0.20
2022-12-20T03:06:35.799Z,0.30
2022-12-20T03:09:02.966Z,0.30
2022-12-20T03:11:29.569Z,0.30
2022-12-20T03:13:56.145Z,0.30
2022-12-20T03:16:22.827Z,0.30
2022-12-20T03:18:49.451Z,0.30
2022-12-20T03:21:16.038Z,0.30
2022-12-20T03:23:42.645Z,0.30
2022-12-20T03:26:09.229Z,0.30
2022-12-20T03:28:35.841Z,0.30
2022-12-20T03:31:02.537Z,0.30
2022-12-20T03:33:29.205Z,0.30
2022-12-20T03:35:55.776Z,0.30
2022-12-20T03:38:22.379Z,0.30
2022-12-20T03:40:48.966Z,0.30
2022-12-20T03:43:15.539Z,0.30
2022-12-20T03:45:42.190Z,0.30
2022-12-20T03:48:08.811Z,0.30
2022-12-20T03:50:35.432Z,0.30
2022-12-20T03:53:02.015Z,0.30
2022-12-20T03:55:31.669Z,0.20
2022-12-20T03:57:58.262Z,0.20
2022-12-20T04:00:24.867Z,0.20
2022-12-20T04:02:51.620Z,0.20
2022-12-20T04:05:18.601Z,0.20
2022-12-20T04:07:45.239Z,0.20
2022-12-20T04:10:11.941Z,0.20
2022-12-20T04:12:38.549Z,0.20
2022-12-20T04:15:05.588Z,0.10
2022-12-20T04:17:32.207Z,0.10
2022-12-20T04:19:58.838Z,0.20
2022-12-20T04:22:25.521Z,0.20
2022-12-20T04:24:52.093Z,0.20
2022-12-20T04:27:18.698Z,0.10
2022-12-20T04:29:45.274Z,0.10
2022-12-20T04:32:11.856Z,0.10
2022-12-20T04:34:38.476Z,0.10
2022-12-20T04:37:05.080Z,0.10
2022-12-20T04:39:31.679Z,0.10
2022-12-20T04:41:58.258Z,0.20
2022-12-20T04:44:24.854Z,0.20
2022-12-20T04:46:52.426Z,0.20
2022-12-20T04:49:19.176Z,0.20
2022-12-20T04:51:45.749Z,0.20
2022-12-20T04:54:12.380Z,0.10
2022-12-20T04:56:38.954Z,0.10
2022-12-20T04:59:05.541Z,0.10
2022-12-20T05:01:32.224Z,0.10
2022-12-20T05:03:58.874Z,0.10
2022-12-20T05:06:25.536Z,0.10
2022-12-20T05:08:52.099Z,0.00
2022-12-20T05:11:18.691Z,0.10
2022-12-20T05:13:45.286Z,0.10
2022-12-20T05:16:12.035Z,0.20
2022-12-20T05:18:44.562Z,0.20
2022-12-20T05:21:14.950Z,0.30
2022-12-20T05:23:41.805Z,0.20
2022-12-20T05:26:09.162Z,0.20
2022-12-20T05:28:36.443Z,0.20
2022-12-20T05:31:03.614Z,0.20
2022-12-20T05:33:34.030Z,0.20
2022-12-20T05:36:01.003Z,0.20
2022-12-20T05:38:27.678Z,0.20
2022-12-20T05:40:54.295Z,0.20
2022-12-20T05:43:20.897Z,0.20
2022-12-20T05:45:48.670Z,0.20
2022-12-20T05:48:16.363Z,0.10
2022-12-20T05:50:43.580Z,0.10
2022-12-20T05:53:14.532Z,0.10
2022-12-20T05:55:47.202Z,0.10
2022-12-20T05:58:14.493Z,0.10
2022-12-20T06:00:42.308Z,0.10
2022-12-20T06:03:10.147Z,0.20
2022-12-20T06:05:37.756Z,0.20
2022-12-20T06:08:06.103Z,0.20
2022-12-20T06:10:33.775Z,0.30
2022-12-20T06:13:01.753Z,0.30
2022-12-20T06:15:29.060Z,0.30
2022-12-20T06:17:55.832Z,0.30
2022-12-20T06:20:22.470Z,0.30
2022-12-20T06:22:49.088Z,0.30
2022-12-20T06:25:16.194Z,0.30
2022-12-20T06:27:42.953Z,0.30
2022-12-20T06:30:10.629Z,0.30
2022-12-20T06:32:37.409Z,0.30
2022-12-20T06:35:04.361Z,0.30
2022-12-20T06:37:31.017Z,0.20
2022-12-20T06:39:57.608Z,0.30
2022-12-20T06:42:24.404Z,0.30
2022-12-20T06:44:50.989Z,0.30
2022-12-20T06:47:17.634Z,0.30
2022-12-20T06:49:44.215Z,0.30
2022-12-20T06:52:10.801Z,0.30
2022-12-20T06:54:37.395Z,0.30
2022-12-20T06:57:04.005Z,0.30
2022-12-20T06:59:30.596Z,0.20
2022-12-20T07:01:57.315Z,0.20
2022-12-20T07:04:24.065Z,0.20
2022-12-20T07:06:50.667Z,0.20
2022-12-20T07:09:17.251Z,0.10
2022-12-20T07:11:43.848Z,0.20
2022-12-20T07:14:10.725Z,0.20
2022-12-20T07:16:37.692Z,0.20
2022-12-20T07:19:04.751Z,0.30
2022-12-20T07:21:31.416Z,0.30
2022-12-20T07:23:58.187Z,0.30
2022-12-20T07:26:24.768Z,0.30
2022-12-20T07:28:51.505Z,0.30
2022-12-20T07:31:18.274Z,0.30
2022-12-20T07:33:44.872Z,0.30
2022-12-20T07:36:13.529Z,0.40
2022-12-20T07:38:40.236Z,0.40
2022-12-20T07:41:12.257Z,0.40
2022-12-20T07:43:39.641Z,0.40
2022-12-20T07:46:07.977Z,0.40
2022-12-20T07:48:34.669Z,0.50
2022-12-20T07:51:05.989Z,0.50
2022-12-20T07:53:34.712Z,0.50
2022-12-20T07:56:02.427Z,0.50
2022-12-20T07:58:30.432Z,0.60
2022-12-20T08:00:58.047Z,0.70
2022-12-20T08:03:32.882Z,0.70
2022-12-20T08:06:03.385Z,0.70
2022-12-20T08:08:32.962Z,0.80
2022-12-20T08:11:00.087Z,0.80
2022-12-20T08:13:26.801Z,0.90
2022-12-20T08:15:53.408Z,1.00
2022-12-20T08:18:20.008Z,1.00
2022-12-20T08:20:46.580Z,1.10
2022-12-20T08:23:13.185Z,1.20
2022-12-20T08:25:42.083Z,1.20
2022-12-20T08:28:09.563Z,1.20
2022-12-20T08:30:36.349Z,1.20
2022-12-20T08:33:02.983Z,1.30
2022-12-20T08:35:29.610Z,1.30
2022-12-20T08:37:56.281Z,1.40
2022-12-20T08:40:23.035Z,1.50
2022-12-20T08:42:49.722Z,1.50
2022-12-20T08:45:16.327Z,1.50
2022-12-20T08:47:42.917Z,1.50
2022-12-20T08:50:09.816Z,1.60
2022-12-20T08:52:36.476Z,1.60
2022-12-20T08:55:05.282Z,1.60
2022-12-20T08:57:32.535Z,1.70
2022-12-20T08:59:59.131Z,1.70
2022-12-20T09:02:26.876Z,1.70
2022-12-20T09:04:53.593Z,1.70
2022-12-20T09:07:20.201Z,1.70
2022-12-20T09:09:47.048Z,1.70
2022-12-20T09:12:13.645Z,1.70
2022-12-20T09:14:40.221Z,1.70
2022-12-20T09:17:06.793Z,1.80
2022-12-20T09:19:33.372Z,1.80
2022-12-20T09:21:59.948Z,1.80
2022-12-20T09:24:26.525Z,1.90
2022-12-20T09:26:53.097Z,1.90
2022-12-20T09:29:26.957Z,1.90
2022-12-20T09:31:55.050Z,2.00
2022-12-20T09:34:21.649Z,2.00
2022-12-20T09:36:48.226Z,2.10
2022-12-20T09:39:14.817Z,2.10
2022-12-20T09:41:42.576Z,2.30
2022-12-20T09:44:31.552Z,2.30
2022-12-20T09:47:10.478Z,2.30
2022-12-20T09:49:41.232Z,2.30
2022-12-20T09:52:39.753Z,2.30
2022-12-20T09:55:18.207Z,2.40
2022-12-20T09:58:05.916Z,2.40
2022-12-20T10:00:40.786Z,2.40
2022-12-20T10:03:17.104Z,2.30
2022-12-20T10:06:04.326Z,2.40
2022-12-20T10:08:49.177Z,2.30
2022-12-20T10:11:46.202Z,2.30
2022-12-20T10:14:50.216Z,2.50
2022-12-20T10:17:32.211Z,2.60
2022-12-20T10:20:12.126Z,2.50
2022-12-20T10:22:44.311Z,2.50
2022-12-20T10:25:19.265Z,2.50
2022-12-20T10:27:47.541Z,2.50
2022-12-20T10:30:19.605Z,2.60
2022-12-20T10:32:52.704Z,2.60
2022-12-20T10:35:25.549Z,2.60
2022-12-20T10:38:07.511Z,2.70
2022-12-20T10:43:28.178Z,2.70
2022-12-20T10:46:01.572Z,2.60
2022-12-20T10:48:36.819Z,2.60
2022-12-20T10:51:15.409Z,2.60
2022-12-20T10:53:53.644Z,2.60
2022-12-20T10:56:34.766Z,2.60
2022-12-20T10:59:21.318Z,2.60
2022-12-20T11:01:49.613Z,2.70
2022-12-20T11:04:31.846Z,2.70
2022-12-20T11:07:00.512Z,2.70
2022-12-20T11:09:28.826Z,2.80
2022-12-20T11:12:13.186Z,2.80
2022-12-20T11:14:41.640Z,2.90
2022-12-20T11:17:29.382Z,2.90
2022-12-20T11:20:24.783Z,2.90
2022-12-20T11:23:07.604Z,2.90
2022-12-20T11:25:51.644Z,3.00
2022-12-20T11:28:49.020Z,2.90
2022-12-20T11:31:39.729Z,2.90
2022-12-20T11:34:43.769Z,3.00
2022-12-20T11:37:19.038Z,3.10
2022-12-20T11:40:03.143Z,3.10
2022-12-20T11:43:00.360Z,3.10
2022-12-20T11:45:59.159Z,3.20
2022-12-20T11:48:44.082Z,3.20
2022-12-20T11:51:26.276Z,3.20
2022-12-20T11:54:20.825Z,3.20
2022-12-20T11:56:50.933Z,3.30
2022-12-20T11:59:31.773Z,3.40
2022-12-20T12:02:35.742Z,3.40
2022-12-20T12:05:34.833Z,3.40
2022-12-20T12:08:07.121Z,3.30
2022-12-20T12:10:41.762Z,3.30
2022-12-20T12:13:40.052Z,3.40
2022-12-20T12:16:09.146Z,3.50
2022-12-20T12:18:36.912Z,3.40
2022-12-20T12:21:10.824Z,3.20
2022-12-20T12:23:59.096Z,3.10
2022-12-20T12:26:29.131Z,3.10
2022-12-20T12:29:01.439Z,3.10
2022-12-20T12:31:50.004Z,3.10
2022-12-20T12:34:39.064Z,3.10
2022-12-20T12:37:46.958Z,3.10
2022-12-20T12:40:34.244Z,3.10
2022-12-20T12:43:06.424Z,3.10
2022-12-20T12:45:55.095Z,3.00
2022-12-20T12:48:39.629Z,3.00
2022-12-20T12:51:06.945Z,3.00
2022-12-20T12:53:37.493Z,2.90
2022-12-20T12:56:42.803Z,2.90
2022-12-20T12:59:23.975Z,2.90
2022-12-20T13:01:54.855Z,2.90
2022-12-20T13:04:29.340Z,2.90
2022-12-20T13:07:02.286Z,2.90
2022-12-20T13:09:28.827Z,2.90
2022-12-20T13:12:01.404Z,2.90
2022-12-20T13:14:29.950Z,2.80
2022-12-20T13:17:25.541Z,2.90
2022-12-20T13:19:53.773Z,2.90
2022-12-20T13:22:25.562Z,2.90
2022-12-20T13:25:01.305Z,2.90
2022-12-20T13:27:30.693Z,2.90
2022-12-20T13:30:09.477Z,2.90
2022-12-20T13:32:48.341Z,2.90
2022-12-20T13:35:26.949Z,2.90
2022-12-20T13:37:59.088Z,2.90
2022-12-20T13:40:46.479Z,2.90
2022-12-20T13:43:22.199Z,2.80
2022-12-20T13:45:52.966Z,2.80
2022-12-20T13:48:26.297Z,2.80
2022-12-20T13:50:56.078Z,2.90
2022-12-20T13:53:27.428Z,2.90
2022-12-20T13:55:55.190Z,2.90
2022-12-20T13:58:24.586Z,3.00
2022-12-20T14:00:52.974Z,3.00
2022-12-20T14:03:28.803Z,3.10
2022-12-20T14:06:02.713Z,3.20
2022-12-20T14:08:32.943Z,3.10
2022-12-20T14:11:12.277Z,3.10
2022-12-20T14:13:39.421Z,3.20
2022-12-20T14:16:17.124Z,3.20
2022-12-20T14:19:08.743Z,3.20
2022-12-20T14:21:38.898Z,3.10
2022-12-20T14:24:06.230Z,3.00
2022-12-20T14:26:43.547Z,3.10
2022-12-20T14:29:18.058Z,3.00
2022-12-20T14:31:45.201Z,3.00
2022-12-20T14:34:11.721Z,3.00
2022-12-20T14:36:44.020Z,2.90
2022-12-20T14:39:34.110Z,2.90
2022-12-20T14:42:02.947Z,2.80
2022-12-20T14:44:31.573Z,2.70
2022-12-20T14:47:22.687Z,2.70
2022-12-20T14:49:54.067Z,2.60
2022-12-20T14:52:31.984Z,2.70
2022-12-20T14:55:10.222Z,2.90
2022-12-20T14:57:37.446Z,2.70
2022-12-20T15:00:15.537Z,2.60
2022-12-20T15:03:06.237Z,2.60
2022-12-20T15:05:36.226Z,2.60
2022-12-20T15:08:31.275Z,2.60
2022-12-20T15:11:09.886Z,2.60
2022-12-20T15:13:37.562Z,2.60
2022-12-20T15:16:21.622Z,2.60
2022-12-20T15:18:49.874Z,2.60
2022-12-20T15:21:30.404Z,2.60
2022-12-20T15:23:59.494Z,2.60
2022-12-20T15:26:27.839Z,2.60
2022-12-20T15:28:55.015Z,2.50
2022-12-20T15:31:28.887Z,2.50
2022-12-20T15:33:59.427Z,2.50
2022-12-20T15:36:28.193Z,2.40
2022-12-20T15:39:12.077Z,2.40
2022-12-20T15:41:43.108Z,2.30
2022-12-20T15:44:19.365Z,2.30
2022-12-20T15:46:46.234Z,2.30
2022-12-20T15:49:27.921Z,2.30
2022-12-20T15:51:55.108Z,2.20
2022-12-20T15:54:39.646Z,2.20
2022-12-20T15:57:11.201Z,2.30
2022-12-20T16:02:27.407Z,2.20
2022-12-20T16:04:54.843Z,2.20
2022-12-20T16:07:22.032Z,2.20
2022-12-20T16:09:48.622Z,2.20
2022-12-20T16:12:19.009Z,2.20
2022-12-20T16:14:45.595Z,2.20
2022-12-20T16:17:13.395Z,2.20
2022-12-20T16:19:40.547Z,2.20
2022-12-20T16:22:15.928Z,2.10
2022-12-20T16:24:42.726Z,2.10
2022-12-20T16:27:09.927Z,2.10
2022-12-20T16:29:36.534Z,2.10
2022-12-20T16:32:03.387Z,2.10
2022-12-20T16:34:29.991Z,2.10
2022-12-20T16:36:56.552Z,2.10
2022-12-20T16:39:23.109Z,2.10
2022-12-20T16:41:49.696Z,2.10
2022-12-20T16:44:16.923Z,2.10
2022-12-20T16:46:43.753Z,2.10
2022-12-20T16:49:19.529Z,2.10
2022-12-20T16:51:48.064Z,2.10
2022-12-20T16:54:20.409Z,2.10
2022-12-20T16:56:48.578Z,2.10
2022-12-20T16:59:21.276Z,2.00
2022-12-20T17:01:51.587Z,2.00
2022-12-20T17:04:19.360Z,1.90
2022-12-20T17:06:46.427Z,1.90
2022-12-20T17:11:58.697Z,1.90
2022-12-20T17:14:25.263Z,1.90
2022-12-20T17:16:51.890Z,2.00
2022-12-20T17:19:18.509Z,2.00
2022-12-20T17:24:32.628Z,2.00
2022-12-20T17:26:59.596Z,2.10
2022-12-20T17:29:26.193Z,2.10
2022-12-20T17:31:52.800Z,2.10
2022-12-20T17:34:22.912Z,2.20
2022-12-20T17:36:51.653Z,2.20
2022-12-20T17:39:18.983Z,2.30
2022-12-20T17:41:46.576Z,2.20
2022-12-20T17:44:24.723Z,2.20
2022-12-20T17:46:52.105Z,2.30
2022-12-20T17:49:19.413Z,2.20
2022-12-20T17:51:46.431Z,2.30
2022-12-20T17:54:24.753Z,2.30
2022-12-20T17:56:51.556Z,2.20
2022-12-20T17:59:18.264Z,2.20
2022-12-20T18:01:46.089Z,2.20
2022-12-20T18:04:15.063Z,2.20
2022-12-20T18:06:45.067Z,2.20
2022-12-20T18:09:17.027Z,2.20
2022-12-20T18:11:44.043Z,2.10
2022-12-20T18:14:11.442Z,2.10
2022-12-20T18:16:38.313Z,2.10
2022-12-20T18:19:05.973Z,2.10
2022-12-20T18:21:32.703Z,2.10
2022-12-20T18:23:59.296Z,2.10
2022-12-20T18:26:29.093Z,2.10
2022-12-20T18:29:00.688Z,2.00
2022-12-20T18:31:30.538Z,2.00
2022-12-20T18:33:58.874Z,2.00
2022-12-20T18:36:36.364Z,2.00
2022-12-20T18:39:06.385Z,1.90
2022-12-20T18:41:33.285Z,1.90
2022-12-20T18:44:02.312Z,2.00
2022-12-20T18:46:29.943Z,2.00
2022-12-20T18:48:58.997Z,2.00
2022-12-20T18:51:33.889Z,2.00
2022-12-20T18:54:00.915Z,1.90
2022-12-20T18:56:30.205Z,1.90
2022-12-20T18:59:02.996Z,1.90
2022-12-20T19:01:35.682Z,1.90
2022-12-20T19:04:04.465Z,1.90
2022-12-20T19:06:32.573Z,1.90
2022-12-20T19:09:00.055Z,1.80
2022-12-20T19:11:26.681Z,1.90
2022-12-20T19:13:53.449Z,1.90
2022-12-20T19:16:22.600Z,1.90
2022-12-20T19:18:50.119Z,1.90
2022-12-20T19:21:21.157Z,2.00
2022-12-20T19:23:50.092Z,2.00
2022-12-20T19:26:18.048Z,2.00
2022-12-20T19:28:44.673Z,2.10
2022-12-20T19:31:21.607Z,2.10
2022-12-20T19:33:49.668Z,2.10
2022-12-20T19:36:19.007Z,2.10
2022-12-20T19:38:47.733Z,2.20
2022-12-20T19:41:14.853Z,2.20
2022-12-20T19:43:41.496Z,2.10
2022-12-20T19:46:08.445Z,2.20
2022-12-20T19:48:35.821Z,2.20
2022-12-20T19:51:08.554Z,2.20
2022-12-20T19:53:35.673Z,2.40
2022-12-20T19:56:02.807Z,2.60
2022-12-20T19:58:29.484Z,2.40
2022-12-20T20:00:56.397Z,2.40
2022-12-20T20:03:23.195Z,2.40
2022-12-20T20:05:49.899Z,2.30
2022-12-20T20:08:16.531Z,2.30
2022-12-20T20:10:43.228Z,2.30
2022-12-20T20:13:10.152Z,2.30
2022-12-20T20:15:36.935Z,2.30
2022-12-20T20:18:03.649Z,2.30
2022-12-20T20:20:30.212Z,2.30
2022-12-20T20:22:56.793Z,2.30
2022-12-20T20:25:23.388Z,2.30
2022-12-20T20:27:49.951Z,2.30
2022-12-20T20:30:16.690Z,2.30
2022-12-20T20:32:43.314Z,2.30
2022-12-20T20:35:10.571Z,2.30
2022-12-20T20:37:37.483Z,2.30
2022-12-20T20:40:04.800Z,2.30
2022-12-20T20:42:31.379Z,2.30
2022-12-20T20:44:57.942Z,2.20
2022-12-20T20:47:24.600Z,2.30
2022-12-20T20:49:51.178Z,2.30
2022-12-20T20:52:17.884Z,2.20
2022-12-20T20:54:44.427Z,2.20
2022-12-20T20:57:11.037Z,2.30
2022-12-20T20:59:37.632Z,2.20
2022-12-20T21:02:04.320Z,2.20
2022-12-20T21:04:31.016Z,2.30
2022-12-20T21:06:57.599Z,2.30
2022-12-20T21:09:24.181Z,2.30
2022-12-20T21:11:50.921Z,2.20
2022-12-20T21:14:25.720Z,2.30
2022-12-20T21:17:04.263Z,2.30
2022-12-20T21:19:30.849Z,2.30
2022-12-20T21:21:57.401Z,2.20
2022-12-20T21:24:23.991Z,2.20
2022-12-20T21:26:50.572Z,2.20
2022-12-20T21:29:17.188Z,2.10
2022-12-20T21:31:43.811Z,2.10
2022-12-20T21:34:10.434Z,2.10
2022-12-20T21:36:37.016Z,2.10
2022-12-20T21:39:03.712Z,2.10
2022-12-20T21:41:30.324Z,2.00
2022-12-20T21:44:00.800Z,2.00
2022-12-20T21:46:28.825Z,2.00
2022-12-20T21:48:55.605Z,2.00
2022-12-20T21:51:24.146Z,2.00
2022-12-20T21:53:52.767Z,2.00
2022-12-20T21:56:20.692Z,2.00
2022-12-20T21:58:47.976Z,2.00
2022-12-20T22:01:20.407Z,2.00
2022-12-20T22:03:50.216Z,2.00
2022-12-20T22:06:16.821Z,2.10
2022-12-20T22:08:43.467Z,2.00
2022-12-20T22:11:13.163Z,2.00
2022-12-20T22:13:41.914Z,2.00
2022-12-20T22:16:11.991Z,2.00
2022-12-20T22:18:39.860Z,2.00
2022-12-20T22:21:12.089Z,2.00
2022-12-20T22:23:39.515Z,2.00
2022-12-20T22:26:10.933Z,2.00
2022-12-20T22:28:38.524Z,2.00
2022-12-20T22:31:09.180Z,2.00
2022-12-20T22:33:36.727Z,2.00
2022-12-20T22:36:03.976Z,2.00
2022-12-20T22:38:30.953Z,2.00
2022-12-20T22:41:30.328Z,2.00
2022-12-20T22:44:00.575Z,2.00
2022-12-20T22:46:27.583Z,2.00
2022-12-20T22:48:54.247Z,2.00
2022-12-20T22:51:23.054Z,2.00
2022-12-20T22:53:49.640Z,2.00
2022-12-20T22:56:17.879Z,2.10
2022-12-20T22:58:44.608Z,2.10
2022-12-20T23:01:12.896Z,2.10
2022-12-20T23:03:40.060Z,2.10
2022-12-20T23:06:08.540Z,2.00
2022-12-20T23:08:36.784Z,2.00
2022-12-20T23:11:04.824Z,2.00
2022-12-20T23:13:31.415Z,2.00
2022-12-20T23:15:57.993Z,2.00
2022-12-20T23:18:24.577Z,2.00
2022-12-20T23:20:52.445Z,2.00
2022-12-20T23:23:19.024Z,2.00
2022-12-20T23:25:45.608Z,2.10
2022-12-20T23:28:12.185Z,2.10
2022-12-20T23:30:38.806Z,2.10
2022-12-20T23:33:05.479Z,2.10
2022-12-20T23:35:32.059Z,2.10
2022-12-20T23:37:58.868Z,2.10
2022-12-20T23:40:25.459Z,2.10
2022-12-20T23:42:53.368Z,2.10
2022-12-20T23:45:20.007Z,2.10
2022-12-20T23:47:46.564Z,2.10
2022-12-20T23:50:13.146Z,2.10
2022-12-20T23:52:39.731Z,2.10
2022-12-20T23:55:07.718Z,2.10
2022-12-20T23:57:34.290Z,2.10
